sensor_id;sensor_type;location;lat;lon;timestamp;P1;durP1;ratioP1;P2;durP2;ratioP2
54384;SDS011;40284;52.878;5.998;2022-08-19T00:00:43;7.35;;;5.50;;
54384;SDS011;40284;52.878;5.998;2022-08-19T00:03:09;6.82;;;5.38;;
54384;SDS011;40284;52.878;5.998;2022-08-19T00:05:35;10.70;;;5.45;;
54384;SDS011;40284;52.878;5.998;2022-08-19T00:08:02;9.52;;;5.63;;
54384;SDS011;40284;52.878;5.998;2022-08-19T00:10:28;9.63;;;5.43;;
54384;SDS011;40284;52.878;5.998;2022-08-19T00:12:54;9.77;;;5.95;;
54384;SDS011;40284;52.878;5.998;2022-08-19T00:15:21;7.18;;;5.47;;
54384;SDS011;40284;52.878;5.998;2022-08-19T00:17:47;7.55;;;5.75;;
54384;SDS011;40284;52.878;5.998;2022-08-19T00:20:14;9.45;;;6.93;;
54384;SDS011;40284;52.878;5.998;2022-08-19T00:22:42;11.95;;;6.40;;
54384;SDS011;40284;52.878;5.998;2022-08-19T00:25:09;10.45;;;6.63;;
54384;SDS011;40284;52.878;5.998;2022-08-19T00:27:35;13.55;;;6.28;;
54384;SDS011;40284;52.878;5.998;2022-08-19T00:30:02;8.25;;;6.88;;
54384;SDS011;40284;52.878;5.998;2022-08-19T00:32:30;10.82;;;7.63;;
54384;SDS011;40284;52.878;5.998;2022-08-19T00:34:56;7.75;;;6.43;;
54384;SDS011;40284;52.878;5.998;2022-08-19T00:37:22;9.95;;;8.43;;
54384;SDS011;40284;52.878;5.998;2022-08-19T00:39:50;8.63;;;6.57;;
54384;SDS011;40284;52.878;5.998;2022-08-19T00:42:17;8.40;;;7.28;;
54384;SDS011;40284;52.878;5.998;2022-08-19T00:44:43;8.32;;;6.65;;
54384;SDS011;40284;52.878;5.998;2022-08-19T00:47:10;10.82;;;7.28;;
54384;SDS011;40284;52.878;5.998;2022-08-19T00:49:55;9.50;;;6.63;;
54384;SDS011;40284;52.878;5.998;2022-08-19T00:52:24;8.45;;;6.13;;
54384;SDS011;40284;52.878;5.998;2022-08-19T00:54:54;8.02;;;6.55;;
54384;SDS011;40284;52.878;5.998;2022-08-19T00:57:22;11.00;;;7.25;;
54384;SDS011;40284;52.878;5.998;2022-08-19T00:59:51;8.32;;;6.63;;
54384;SDS011;40284;52.878;5.998;2022-08-19T01:02:18;9.23;;;7.13;;
54384;SDS011;40284;52.878;5.998;2022-08-19T01:04:44;9.82;;;7.30;;
54384;SDS011;40284;52.878;5.998;2022-08-19T01:07:10;10.63;;;7.20;;
54384;SDS011;40284;52.878;5.998;2022-08-19T01:09:37;11.95;;;8.00;;
54384;SDS011;40284;52.878;5.998;2022-08-19T01:12:03;10.20;;;6.97;;
54384;SDS011;40284;52.878;5.998;2022-08-19T01:14:30;10.23;;;6.60;;
54384;SDS011;40284;52.878;5.998;2022-08-19T01:16:56;8.85;;;7.72;;
54384;SDS011;40284;52.878;5.998;2022-08-19T01:19:29;9.68;;;7.57;;
54384;SDS011;40284;52.878;5.998;2022-08-19T01:22:04;8.73;;;7.47;;
54384;SDS011;40284;52.878;5.998;2022-08-19T01:24:31;12.77;;;8.77;;
54384;SDS011;40284;52.878;5.998;2022-08-19T01:26:58;12.70;;;8.43;;
54384;SDS011;40284;52.878;5.998;2022-08-19T01:29:24;9.77;;;8.85;;
54384;SDS011;40284;52.878;5.998;2022-08-19T01:31:50;12.80;;;9.70;;
54384;SDS011;40284;52.878;5.998;2022-08-19T01:34:18;10.77;;;8.93;;
54384;SDS011;40284;52.878;5.998;2022-08-19T01:36:46;10.95;;;8.80;;
54384;SDS011;40284;52.878;5.998;2022-08-19T01:39:18;11.27;;;8.88;;
54384;SDS011;40284;52.878;5.998;2022-08-19T01:41:45;10.50;;;9.40;;
54384;SDS011;40284;52.878;5.998;2022-08-19T01:44:11;11.05;;;9.18;;
54384;SDS011;40284;52.878;5.998;2022-08-19T01:46:38;10.63;;;8.38;;
54384;SDS011;40284;52.878;5.998;2022-08-19T01:49:04;12.57;;;8.70;;
54384;SDS011;40284;52.878;5.998;2022-08-19T01:51:31;10.02;;;8.38;;
54384;SDS011;40284;52.878;5.998;2022-08-19T01:53:57;12.70;;;9.18;;
54384;SDS011;40284;52.878;5.998;2022-08-19T01:56:24;11.70;;;9.20;;
54384;SDS011;40284;52.878;5.998;2022-08-19T01:58:54;11.02;;;9.77;;
54384;SDS011;40284;52.878;5.998;2022-08-19T02:01:21;12.70;;;9.43;;
54384;SDS011;40284;52.878;5.998;2022-08-19T02:03:47;17.30;;;10.35;;
54384;SDS011;40284;52.878;5.998;2022-08-19T02:06:13;12.40;;;9.07;;
54384;SDS011;40284;52.878;5.998;2022-08-19T02:08:42;13.52;;;9.63;;
54384;SDS011;40284;52.878;5.998;2022-08-19T02:11:17;12.40;;;9.82;;
54384;SDS011;40284;52.878;5.998;2022-08-19T02:13:44;12.00;;;9.38;;
54384;SDS011;40284;52.878;5.998;2022-08-19T02:16:10;12.18;;;9.75;;
54384;SDS011;40284;52.878;5.998;2022-08-19T02:18:36;10.75;;;8.35;;
54384;SDS011;40284;52.878;5.998;2022-08-19T02:21:02;10.35;;;9.35;;
54384;SDS011;40284;52.878;5.998;2022-08-19T02:23:28;12.98;;;10.43;;
54384;SDS011;40284;52.878;5.998;2022-08-19T02:25:54;11.57;;;8.85;;
54384;SDS011;40284;52.878;5.998;2022-08-19T02:28:20;10.48;;;9.45;;
54384;SDS011;40284;52.878;5.998;2022-08-19T02:30:47;12.77;;;9.43;;
54384;SDS011;40284;52.878;5.998;2022-08-19T02:33:13;10.88;;;9.07;;
54384;SDS011;40284;52.878;5.998;2022-08-19T02:35:43;11.68;;;9.15;;
54384;SDS011;40284;52.878;5.998;2022-08-19T02:38:10;11.80;;;9.93;;
54384;SDS011;40284;52.878;5.998;2022-08-19T02:40:56;14.85;;;10.57;;
54384;SDS011;40284;52.878;5.998;2022-08-19T02:43:23;10.98;;;9.30;;
54384;SDS011;40284;52.878;5.998;2022-08-19T02:45:49;13.27;;;10.15;;
54384;SDS011;40284;52.878;5.998;2022-08-19T02:48:17;11.50;;;9.68;;
54384;SDS011;40284;52.878;5.998;2022-08-19T02:50:44;11.15;;;9.95;;
54384;SDS011;40284;52.878;5.998;2022-08-19T02:53:10;12.30;;;8.98;;
54384;SDS011;40284;52.878;5.998;2022-08-19T02:55:42;11.27;;;10.00;;
54384;SDS011;40284;52.878;5.998;2022-08-19T02:58:09;15.75;;;11.18;;
54384;SDS011;40284;52.878;5.998;2022-08-19T03:00:35;15.38;;;11.18;;
54384;SDS011;40284;52.878;5.998;2022-08-19T03:03:01;11.82;;;10.63;;
54384;SDS011;40284;52.878;5.998;2022-08-19T03:05:28;14.05;;;10.63;;
54384;SDS011;40284;52.878;5.998;2022-08-19T03:07:54;14.88;;;10.77;;
54384;SDS011;40284;52.878;5.998;2022-08-19T03:10:20;13.50;;;10.82;;
54384;SDS011;40284;52.878;5.998;2022-08-19T03:12:46;12.90;;;10.77;;
54384;SDS011;40284;52.878;5.998;2022-08-19T03:15:12;11.55;;;10.35;;
54384;SDS011;40284;52.878;5.998;2022-08-19T03:17:38;14.02;;;10.73;;
54384;SDS011;40284;52.878;5.998;2022-08-19T03:20:04;13.50;;;10.35;;
54384;SDS011;40284;52.878;5.998;2022-08-19T03:22:31;16.23;;;10.55;;
54384;SDS011;40284;52.878;5.998;2022-08-19T03:24:58;13.85;;;11.30;;
54384;SDS011;40284;52.878;5.998;2022-08-19T03:27:24;12.68;;;10.95;;
54384;SDS011;40284;52.878;5.998;2022-08-19T03:29:50;13.05;;;11.70;;
54384;SDS011;40284;52.878;5.998;2022-08-19T03:32:16;14.43;;;11.63;;
54384;SDS011;40284;52.878;5.998;2022-08-19T03:34:42;15.57;;;12.30;;
54384;SDS011;40284;52.878;5.998;2022-08-19T03:37:09;16.27;;;12.32;;
54384;SDS011;40284;52.878;5.998;2022-08-19T03:39:38;17.33;;;13.23;;
54384;SDS011;40284;52.878;5.998;2022-08-19T03:42:04;14.63;;;12.15;;
54384;SDS011;40284;52.878;5.998;2022-08-19T03:44:31;13.93;;;12.45;;
54384;SDS011;40284;52.878;5.998;2022-08-19T03:46:58;15.80;;;12.27;;
54384;SDS011;40284;52.878;5.998;2022-08-19T03:49:25;14.82;;;12.95;;
54384;SDS011;40284;52.878;5.998;2022-08-19T03:51:52;14.13;;;12.63;;
54384;SDS011;40284;52.878;5.998;2022-08-19T03:54:19;15.63;;;13.40;;
54384;SDS011;40284;52.878;5.998;2022-08-19T03:56:46;15.55;;;13.18;;
54384;SDS011;40284;52.878;5.998;2022-08-19T03:59:14;18.83;;;14.48;;
54384;SDS011;40284;52.878;5.998;2022-08-19T04:01:45;16.07;;;14.00;;
54384;SDS011;40284;52.878;5.998;2022-08-19T04:04:11;20.50;;;14.65;;
54384;SDS011;40284;52.878;5.998;2022-08-19T04:06:38;17.90;;;14.38;;
54384;SDS011;40284;52.878;5.998;2022-08-19T04:09:06;16.63;;;14.23;;
54384;SDS011;40284;52.878;5.998;2022-08-19T04:11:34;16.75;;;13.70;;
54384;SDS011;40284;52.878;5.998;2022-08-19T04:14:01;17.95;;;14.35;;
54384;SDS011;40284;52.878;5.998;2022-08-19T04:16:27;18.35;;;14.65;;
54384;SDS011;40284;52.878;5.998;2022-08-19T04:18:54;19.67;;;15.15;;
54384;SDS011;40284;52.878;5.998;2022-08-19T04:21:23;16.10;;;14.40;;
54384;SDS011;40284;52.878;5.998;2022-08-19T04:23:49;16.95;;;14.50;;
54384;SDS011;40284;52.878;5.998;2022-08-19T04:26:16;19.58;;;15.27;;
54384;SDS011;40284;52.878;5.998;2022-08-19T04:28:43;18.02;;;13.75;;
54384;SDS011;40284;52.878;5.998;2022-08-19T04:31:17;17.75;;;14.77;;
54384;SDS011;40284;52.878;5.998;2022-08-19T04:33:43;21.85;;;14.70;;
54384;SDS011;40284;52.878;5.998;2022-08-19T04:36:16;19.88;;;15.93;;
54384;SDS011;40284;52.878;5.998;2022-08-19T04:38:44;21.17;;;16.20;;
54384;SDS011;40284;52.878;5.998;2022-08-19T04:41:10;17.35;;;15.02;;
54384;SDS011;40284;52.878;5.998;2022-08-19T04:43:55;17.75;;;14.52;;
54384;SDS011;40284;52.878;5.998;2022-08-19T04:46:21;17.88;;;13.75;;
54384;SDS011;40284;52.878;5.998;2022-08-19T04:48:47;18.20;;;14.50;;
54384;SDS011;40284;52.878;5.998;2022-08-19T04:51:13;18.08;;;15.10;;
54384;SDS011;40284;52.878;5.998;2022-08-19T04:53:40;18.17;;;14.25;;
54384;SDS011;40284;52.878;5.998;2022-08-19T04:56:16;19.30;;;14.25;;
54384;SDS011;40284;52.878;5.998;2022-08-19T04:58:44;18.90;;;15.23;;
54384;SDS011;40284;52.878;5.998;2022-08-19T05:01:15;20.00;;;15.10;;
54384;SDS011;40284;52.878;5.998;2022-08-19T05:03:42;20.40;;;14.77;;
54384;SDS011;40284;52.878;5.998;2022-08-19T05:06:09;16.05;;;13.75;;
54384;SDS011;40284;52.878;5.998;2022-08-19T05:08:36;17.58;;;14.68;;
54384;SDS011;40284;52.878;5.998;2022-08-19T05:11:19;16.65;;;14.60;;
54384;SDS011;40284;52.878;5.998;2022-08-19T05:13:46;17.30;;;14.75;;
54384;SDS011;40284;52.878;5.998;2022-08-19T05:16:14;17.50;;;15.55;;
54384;SDS011;40284;52.878;5.998;2022-08-19T05:18:40;20.00;;;15.20;;
54384;SDS011;40284;52.878;5.998;2022-08-19T05:21:25;17.63;;;15.20;;
54384;SDS011;40284;52.878;5.998;2022-08-19T05:24:10;21.17;;;14.73;;
54384;SDS011;40284;52.878;5.998;2022-08-19T05:26:37;20.25;;;15.23;;
54384;SDS011;40284;52.878;5.998;2022-08-19T05:29:03;18.25;;;14.85;;
54384;SDS011;40284;52.878;5.998;2022-08-19T05:31:29;16.92;;;14.32;;
54384;SDS011;40284;52.878;5.998;2022-08-19T05:33:56;18.88;;;16.63;;
54384;SDS011;40284;52.878;5.998;2022-08-19T05:36:23;20.33;;;14.45;;
54384;SDS011;40284;52.878;5.998;2022-08-19T05:38:50;17.27;;;13.95;;
54384;SDS011;40284;52.878;5.998;2022-08-19T05:41:17;19.23;;;16.42;;
54384;SDS011;40284;52.878;5.998;2022-08-19T05:43:43;17.40;;;15.23;;
54384;SDS011;40284;52.878;5.998;2022-08-19T05:46:15;19.30;;;16.02;;
54384;SDS011;40284;52.878;5.998;2022-08-19T05:48:41;20.95;;;14.75;;
54384;SDS011;40284;52.878;5.998;2022-08-19T05:51:07;29.20;;;16.65;;
54384;SDS011;40284;52.878;5.998;2022-08-19T05:53:34;20.20;;;15.60;;
54384;SDS011;40284;52.878;5.998;2022-08-19T05:56:04;19.83;;;15.00;;
54384;SDS011;40284;52.878;5.998;2022-08-19T05:58:30;20.35;;;16.02;;
54384;SDS011;40284;52.878;5.998;2022-08-19T06:00:58;19.10;;;16.08;;
54384;SDS011;40284;52.878;5.998;2022-08-19T06:03:29;19.42;;;15.68;;
54384;SDS011;40284;52.878;5.998;2022-08-19T06:05:55;18.48;;;15.45;;
54384;SDS011;40284;52.878;5.998;2022-08-19T06:08:24;17.65;;;15.55;;
54384;SDS011;40284;52.878;5.998;2022-08-19T06:10:50;18.95;;;15.98;;
54384;SDS011;40284;52.878;5.998;2022-08-19T06:13:16;20.63;;;17.00;;
54384;SDS011;40284;52.878;5.998;2022-08-19T06:15:44;19.17;;;16.67;;
54384;SDS011;40284;52.878;5.998;2022-08-19T06:18:12;20.13;;;16.20;;
54384;SDS011;40284;52.878;5.998;2022-08-19T06:20:38;20.80;;;16.77;;
54384;SDS011;40284;52.878;5.998;2022-08-19T06:23:04;19.60;;;16.38;;
54384;SDS011;40284;52.878;5.998;2022-08-19T06:25:30;18.65;;;15.90;;
54384;SDS011;40284;52.878;5.998;2022-08-19T06:27:56;19.40;;;15.77;;
54384;SDS011;40284;52.878;5.998;2022-08-19T06:30:22;21.33;;;16.10;;
54384;SDS011;40284;52.878;5.998;2022-08-19T06:32:48;20.52;;;16.00;;
54384;SDS011;40284;52.878;5.998;2022-08-19T06:35:14;17.10;;;15.27;;
54384;SDS011;40284;52.878;5.998;2022-08-19T06:37:40;17.55;;;15.57;;
54384;SDS011;40284;52.878;5.998;2022-08-19T06:40:08;16.75;;;15.02;;
54384;SDS011;40284;52.878;5.998;2022-08-19T06:42:35;20.25;;;16.80;;
54384;SDS011;40284;52.878;5.998;2022-08-19T06:45:03;21.67;;;15.65;;
54384;SDS011;40284;52.878;5.998;2022-08-19T06:47:30;18.45;;;16.17;;
54384;SDS011;40284;52.878;5.998;2022-08-19T06:49:58;21.13;;;15.85;;
54384;SDS011;40284;52.878;5.998;2022-08-19T06:52:27;17.83;;;15.95;;
54384;SDS011;40284;52.878;5.998;2022-08-19T06:54:53;20.92;;;16.60;;
54384;SDS011;40284;52.878;5.998;2022-08-19T06:57:21;19.23;;;16.08;;
54384;SDS011;40284;52.878;5.998;2022-08-19T06:59:47;19.45;;;16.27;;
54384;SDS011;40284;52.878;5.998;2022-08-19T07:02:13;21.88;;;16.67;;
54384;SDS011;40284;52.878;5.998;2022-08-19T07:04:39;18.70;;;16.15;;
54384;SDS011;40284;52.878;5.998;2022-08-19T07:07:06;18.75;;;16.20;;
54384;SDS011;40284;52.878;5.998;2022-08-19T07:09:35;19.48;;;17.38;;
54384;SDS011;40284;52.878;5.998;2022-08-19T07:12:02;17.33;;;15.23;;
54384;SDS011;40284;52.878;5.998;2022-08-19T07:14:29;21.30;;;16.85;;
54384;SDS011;40284;52.878;5.998;2022-08-19T07:16:55;21.10;;;17.80;;
54384;SDS011;40284;52.878;5.998;2022-08-19T07:19:23;19.67;;;16.63;;
54384;SDS011;40284;52.878;5.998;2022-08-19T07:21:51;19.52;;;16.48;;
54384;SDS011;40284;52.878;5.998;2022-08-19T07:24:18;19.65;;;17.55;;
54384;SDS011;40284;52.878;5.998;2022-08-19T07:26:45;20.52;;;16.60;;
54384;SDS011;40284;52.878;5.998;2022-08-19T07:29:12;21.60;;;18.08;;
54384;SDS011;40284;52.878;5.998;2022-08-19T07:31:38;21.42;;;18.63;;
54384;SDS011;40284;52.878;5.998;2022-08-19T07:34:05;22.15;;;19.10;;
54384;SDS011;40284;52.878;5.998;2022-08-19T07:36:36;21.02;;;18.85;;
54384;SDS011;40284;52.878;5.998;2022-08-19T07:39:07;21.67;;;19.33;;
54384;SDS011;40284;52.878;5.998;2022-08-19T07:41:34;23.58;;;19.15;;
54384;SDS011;40284;52.878;5.998;2022-08-19T07:44:02;23.63;;;20.10;;
54384;SDS011;40284;52.878;5.998;2022-08-19T07:46:33;24.73;;;20.60;;
54384;SDS011;40284;52.878;5.998;2022-08-19T07:49:00;28.40;;;23.13;;
54384;SDS011;40284;52.878;5.998;2022-08-19T07:51:27;27.20;;;24.30;;
54384;SDS011;40284;52.878;5.998;2022-08-19T07:53:53;30.45;;;23.85;;
54384;SDS011;40284;52.878;5.998;2022-08-19T07:56:19;26.38;;;22.95;;
54384;SDS011;40284;52.878;5.998;2022-08-19T07:58:46;27.27;;;24.33;;
54384;SDS011;40284;52.878;5.998;2022-08-19T08:01:14;25.48;;;22.80;;
54384;SDS011;40284;52.878;5.998;2022-08-19T08:03:41;25.95;;;23.25;;
54384;SDS011;40284;52.878;5.998;2022-08-19T08:06:26;26.67;;;22.98;;
54384;SDS011;40284;52.878;5.998;2022-08-19T08:09:12;25.27;;;22.58;;
54384;SDS011;40284;52.878;5.998;2022-08-19T08:14:19;27.83;;;24.55;;
54384;SDS011;40284;52.878;5.998;2022-08-19T08:16:46;27.57;;;22.90;;
54384;SDS011;40284;52.878;5.998;2022-08-19T08:19:13;25.67;;;22.90;;
54384;SDS011;40284;52.878;5.998;2022-08-19T08:21:42;27.80;;;23.00;;
54384;SDS011;40284;52.878;5.998;2022-08-19T08:24:08;28.00;;;24.90;;
54384;SDS011;40284;52.878;5.998;2022-08-19T08:26:34;27.77;;;24.88;;
54384;SDS011;40284;52.878;5.998;2022-08-19T08:29:01;27.80;;;24.80;;
54384;SDS011;40284;52.878;5.998;2022-08-19T08:31:27;31.05;;;26.75;;
54384;SDS011;40284;52.878;5.998;2022-08-19T08:33:53;32.17;;;25.38;;
54384;SDS011;40284;52.878;5.998;2022-08-19T08:36:19;31.45;;;24.80;;
54384;SDS011;40284;52.878;5.998;2022-08-19T08:38:46;26.67;;;23.15;;
54384;SDS011;40284;52.878;5.998;2022-08-19T08:41:16;27.90;;;24.40;;
54384;SDS011;40284;52.878;5.998;2022-08-19T08:43:54;25.50;;;22.80;;
54384;SDS011;40284;52.878;5.998;2022-08-19T08:48:56;30.17;;;22.45;;
54384;SDS011;40284;52.878;5.998;2022-08-19T08:51:26;25.95;;;23.15;;
54384;SDS011;40284;52.878;5.998;2022-08-19T08:53:53;23.30;;;20.67;;
54384;SDS011;40284;52.878;5.998;2022-08-19T08:56:19;24.08;;;20.98;;
54384;SDS011;40284;52.878;5.998;2022-08-19T08:58:51;23.73;;;20.30;;
54384;SDS011;40284;52.878;5.998;2022-08-19T09:01:20;27.65;;;22.20;;
54384;SDS011;40284;52.878;5.998;2022-08-19T09:03:46;24.30;;;21.70;;
54384;SDS011;40284;52.878;5.998;2022-08-19T09:16:33;21.80;;;17.58;;
54384;SDS011;40284;52.878;5.998;2022-08-19T09:19:02;20.63;;;18.27;;
54384;SDS011;40284;52.878;5.998;2022-08-19T09:21:29;19.27;;;17.27;;
54384;SDS011;40284;52.878;5.998;2022-08-19T09:23:54;18.83;;;14.60;;
54384;SDS011;40284;52.878;5.998;2022-08-19T09:26:22;17.58;;;14.63;;
54384;SDS011;40284;52.878;5.998;2022-08-19T09:28:49;17.08;;;14.65;;
54384;SDS011;40284;52.878;5.998;2022-08-19T09:31:17;18.63;;;14.75;;
54384;SDS011;40284;52.878;5.998;2022-08-19T09:33:48;19.98;;;14.98;;
54384;SDS011;40284;52.878;5.998;2022-08-19T09:36:15;15.73;;;11.82;;
54384;SDS011;40284;52.878;5.998;2022-08-19T09:38:43;16.63;;;14.73;;
54384;SDS011;40284;52.878;5.998;2022-08-19T09:41:11;16.77;;;12.73;;
54384;SDS011;40284;52.878;5.998;2022-08-19T09:43:38;15.35;;;11.88;;
54384;SDS011;40284;52.878;5.998;2022-08-19T09:46:05;17.35;;;11.45;;
54384;SDS011;40284;52.878;5.998;2022-08-19T09:48:32;14.93;;;11.30;;
54384;SDS011;40284;52.878;5.998;2022-08-19T09:53:30;16.85;;;10.52;;
54384;SDS011;40284;52.878;5.998;2022-08-19T09:55:56;14.65;;;11.70;;
54384;SDS011;40284;52.878;5.998;2022-08-19T09:58:22;15.27;;;11.60;;
54384;SDS011;40284;52.878;5.998;2022-08-19T10:01:00;17.60;;;12.70;;
54384;SDS011;40284;52.878;5.998;2022-08-19T10:03:28;19.50;;;15.95;;
54384;SDS011;40284;52.878;5.998;2022-08-19T10:05:55;17.63;;;13.90;;
54384;SDS011;40284;52.878;5.998;2022-08-19T10:08:22;16.42;;;13.98;;
54384;SDS011;40284;52.878;5.998;2022-08-19T10:10:49;25.83;;;21.02;;
54384;SDS011;40284;52.878;5.998;2022-08-19T10:13:17;23.95;;;18.73;;
54384;SDS011;40284;52.878;5.998;2022-08-19T10:15:46;19.90;;;17.55;;
54384;SDS011;40284;52.878;5.998;2022-08-19T10:18:15;20.80;;;16.25;;
54384;SDS011;40284;52.878;5.998;2022-08-19T10:20:45;25.35;;;18.52;;
54384;SDS011;40284;52.878;5.998;2022-08-19T10:23:11;23.00;;;16.77;;
54384;SDS011;40284;52.878;5.998;2022-08-19T10:25:38;20.55;;;17.65;;
54384;SDS011;40284;52.878;5.998;2022-08-19T10:28:04;29.40;;;22.13;;
54384;SDS011;40284;52.878;5.998;2022-08-19T10:30:35;26.20;;;18.02;;
54384;SDS011;40284;52.878;5.998;2022-08-19T10:33:01;18.08;;;15.27;;
54384;SDS011;40284;52.878;5.998;2022-08-19T10:35:27;17.98;;;12.68;;
54384;SDS011;40284;52.878;5.998;2022-08-19T10:37:55;20.13;;;14.27;;
54384;SDS011;40284;52.878;5.998;2022-08-19T10:40:26;18.27;;;14.48;;
54384;SDS011;40284;52.878;5.998;2022-08-19T10:42:56;17.17;;;14.18;;
54384;SDS011;40284;52.878;5.998;2022-08-19T10:45:22;22.33;;;14.95;;
54384;SDS011;40284;52.878;5.998;2022-08-19T10:47:52;24.73;;;17.80;;
54384;SDS011;40284;52.878;5.998;2022-08-19T10:50:18;18.23;;;16.13;;
54384;SDS011;40284;52.878;5.998;2022-08-19T10:53:04;21.63;;;17.95;;
54384;SDS011;40284;52.878;5.998;2022-08-19T10:55:30;24.73;;;20.25;;
54384;SDS011;40284;52.878;5.998;2022-08-19T10:58:16;20.33;;;16.55;;
54384;SDS011;40284;52.878;5.998;2022-08-19T11:01:05;24.17;;;16.85;;
54384;SDS011;40284;52.878;5.998;2022-08-19T11:03:31;19.65;;;16.65;;
54384;SDS011;40284;52.878;5.998;2022-08-19T11:06:02;21.67;;;18.25;;
54384;SDS011;40284;52.878;5.998;2022-08-19T11:08:28;26.90;;;20.50;;
54384;SDS011;40284;52.878;5.998;2022-08-19T11:10:58;26.58;;;19.10;;
54384;SDS011;40284;52.878;5.998;2022-08-19T11:13:26;21.75;;;18.15;;
54384;SDS011;40284;52.878;5.998;2022-08-19T11:16:00;22.77;;;19.17;;
54384;SDS011;40284;52.878;5.998;2022-08-19T11:18:27;24.73;;;20.25;;
54384;SDS011;40284;52.878;5.998;2022-08-19T11:20:53;27.02;;;19.92;;
54384;SDS011;40284;52.878;5.998;2022-08-19T11:23:19;25.65;;;19.67;;
54384;SDS011;40284;52.878;5.998;2022-08-19T11:25:45;22.73;;;17.92;;
54384;SDS011;40284;52.878;5.998;2022-08-19T11:28:12;22.45;;;19.05;;
54384;SDS011;40284;52.878;5.998;2022-08-19T11:30:38;24.88;;;20.30;;
54384;SDS011;40284;52.878;5.998;2022-08-19T11:33:05;25.83;;;19.17;;
54384;SDS011;40284;52.878;5.998;2022-08-19T11:35:31;27.58;;;21.15;;
54384;SDS011;40284;52.878;5.998;2022-08-19T11:37:58;28.38;;;21.92;;
54384;SDS011;40284;52.878;5.998;2022-08-19T11:40:24;22.67;;;20.27;;
54384;SDS011;40284;52.878;5.998;2022-08-19T11:42:50;30.55;;;23.83;;
54384;SDS011;40284;52.878;5.998;2022-08-19T11:45:20;26.20;;;21.85;;
54384;SDS011;40284;52.878;5.998;2022-08-19T11:47:46;27.63;;;20.10;;
54384;SDS011;40284;52.878;5.998;2022-08-19T11:50:13;26.58;;;20.55;;
54384;SDS011;40284;52.878;5.998;2022-08-19T11:52:40;26.15;;;20.13;;
54384;SDS011;40284;52.878;5.998;2022-08-19T11:55:06;24.40;;;18.75;;
54384;SDS011;40284;52.878;5.998;2022-08-19T11:57:32;25.83;;;18.85;;
54384;SDS011;40284;52.878;5.998;2022-08-19T11:59:58;25.23;;;20.90;;
54384;SDS011;40284;52.878;5.998;2022-08-19T12:02:24;23.38;;;20.77;;
54384;SDS011;40284;52.878;5.998;2022-08-19T12:04:50;26.63;;;22.20;;
54384;SDS011;40284;52.878;5.998;2022-08-19T12:07:17;23.13;;;19.98;;
54384;SDS011;40284;52.878;5.998;2022-08-19T12:09:43;25.92;;;21.50;;
54384;SDS011;40284;52.878;5.998;2022-08-19T12:12:09;27.02;;;21.85;;
54384;SDS011;40284;52.878;5.998;2022-08-19T12:14:35;28.92;;;21.88;;
54384;SDS011;40284;52.878;5.998;2022-08-19T12:17:01;23.90;;;20.20;;
54384;SDS011;40284;52.878;5.998;2022-08-19T12:19:29;21.25;;;18.42;;
54384;SDS011;40284;52.878;5.998;2022-08-19T12:21:59;23.05;;;18.63;;
54384;SDS011;40284;52.878;5.998;2022-08-19T12:24:28;29.15;;;23.20;;
54384;SDS011;40284;52.878;5.998;2022-08-19T12:26:56;25.75;;;22.52;;
54384;SDS011;40284;52.878;5.998;2022-08-19T12:29:23;20.83;;;18.52;;
54384;SDS011;40284;52.878;5.998;2022-08-19T12:31:53;22.15;;;19.75;;
54384;SDS011;40284;52.878;5.998;2022-08-19T12:34:25;21.85;;;17.85;;
54384;SDS011;40284;52.878;5.998;2022-08-19T12:36:54;24.58;;;16.40;;
54384;SDS011;40284;52.878;5.998;2022-08-19T12:39:20;21.13;;;17.38;;
54384;SDS011;40284;52.878;5.998;2022-08-19T12:41:46;26.15;;;18.63;;
54384;SDS011;40284;52.878;5.998;2022-08-19T12:44:14;23.58;;;18.58;;
54384;SDS011;40284;52.878;5.998;2022-08-19T12:46:40;24.02;;;18.38;;
54384;SDS011;40284;52.878;5.998;2022-08-19T12:49:06;23.13;;;17.60;;
54384;SDS011;40284;52.878;5.998;2022-08-19T12:51:32;21.17;;;17.83;;
54384;SDS011;40284;52.878;5.998;2022-08-19T12:53:58;22.85;;;17.40;;
54384;SDS011;40284;52.878;5.998;2022-08-19T12:56:24;23.58;;;16.90;;
54384;SDS011;40284;52.878;5.998;2022-08-19T12:58:50;24.52;;;18.95;;
54384;SDS011;40284;52.878;5.998;2022-08-19T13:01:16;20.98;;;17.42;;
54384;SDS011;40284;52.878;5.998;2022-08-19T13:03:44;27.42;;;20.23;;
54384;SDS011;40284;52.878;5.998;2022-08-19T13:06:10;24.45;;;18.40;;
54384;SDS011;40284;52.878;5.998;2022-08-19T13:08:37;21.73;;;15.90;;
54384;SDS011;40284;52.878;5.998;2022-08-19T13:11:14;19.95;;;14.93;;
54384;SDS011;40284;52.878;5.998;2022-08-19T13:13:42;19.85;;;16.45;;
54384;SDS011;40284;52.878;5.998;2022-08-19T13:16:10;25.33;;;19.58;;
54384;SDS011;40284;52.878;5.998;2022-08-19T13:18:37;24.98;;;20.45;;
54384;SDS011;40284;52.878;5.998;2022-08-19T13:21:04;22.52;;;18.65;;
54384;SDS011;40284;52.878;5.998;2022-08-19T13:23:31;19.48;;;16.98;;
54384;SDS011;40284;52.878;5.998;2022-08-19T13:25:58;21.20;;;18.65;;
54384;SDS011;40284;52.878;5.998;2022-08-19T13:28:24;29.73;;;19.42;;
54384;SDS011;40284;52.878;5.998;2022-08-19T13:30:50;25.98;;;20.42;;
54384;SDS011;40284;52.878;5.998;2022-08-19T13:33:35;22.42;;;19.60;;
54384;SDS011;40284;52.878;5.998;2022-08-19T13:36:01;24.00;;;18.13;;
54384;SDS011;40284;52.878;5.998;2022-08-19T13:38:27;25.85;;;18.55;;
54384;SDS011;40284;52.878;5.998;2022-08-19T13:40:55;23.23;;;17.05;;
54384;SDS011;40284;52.878;5.998;2022-08-19T13:43:26;20.73;;;16.98;;
54384;SDS011;40284;52.878;5.998;2022-08-19T13:45:53;24.75;;;17.08;;
54384;SDS011;40284;52.878;5.998;2022-08-19T13:48:23;26.13;;;16.80;;
54384;SDS011;40284;52.878;5.998;2022-08-19T13:50:51;24.52;;;17.40;;
54384;SDS011;40284;52.878;5.998;2022-08-19T13:53:17;22.33;;;17.83;;
54384;SDS011;40284;52.878;5.998;2022-08-19T13:55:44;20.27;;;15.80;;
54384;SDS011;40284;52.878;5.998;2022-08-19T13:58:11;23.35;;;15.82;;
54384;SDS011;40284;52.878;5.998;2022-08-19T14:00:39;19.73;;;15.65;;
54384;SDS011;40284;52.878;5.998;2022-08-19T14:03:05;18.75;;;14.57;;
54384;SDS011;40284;52.878;5.998;2022-08-19T14:05:32;17.88;;;14.93;;
54384;SDS011;40284;52.878;5.998;2022-08-19T14:07:58;18.98;;;15.82;;
54384;SDS011;40284;52.878;5.998;2022-08-19T14:10:26;19.30;;;16.77;;
54384;SDS011;40284;52.878;5.998;2022-08-19T14:12:56;19.30;;;15.30;;
54384;SDS011;40284;52.878;5.998;2022-08-19T14:15:23;17.05;;;14.77;;
54384;SDS011;40284;52.878;5.998;2022-08-19T14:17:50;21.88;;;14.93;;
54384;SDS011;40284;52.878;5.998;2022-08-19T14:20:16;25.63;;;14.00;;
54384;SDS011;40284;52.878;5.998;2022-08-19T14:22:43;19.05;;;12.95;;
54384;SDS011;40284;52.878;5.998;2022-08-19T14:25:11;17.58;;;12.18;;
54384;SDS011;40284;52.878;5.998;2022-08-19T14:27:38;18.65;;;15.25;;
54384;SDS011;40284;52.878;5.998;2022-08-19T14:30:05;17.45;;;13.90;;
54384;SDS011;40284;52.878;5.998;2022-08-19T14:32:33;20.23;;;13.52;;
54384;SDS011;40284;52.878;5.998;2022-08-19T14:35:00;18.40;;;13.65;;
54384;SDS011;40284;52.878;5.998;2022-08-19T14:37:26;14.57;;;12.50;;
54384;SDS011;40284;52.878;5.998;2022-08-19T14:39:52;15.57;;;9.70;;
54384;SDS011;40284;52.878;5.998;2022-08-19T14:42:18;15.00;;;12.02;;
54384;SDS011;40284;52.878;5.998;2022-08-19T14:44:45;15.80;;;11.73;;
54384;SDS011;40284;52.878;5.998;2022-08-19T14:47:11;16.40;;;11.10;;